sensor_id;sensor_type;location;lat;lon;timestamp;P1;durP1;ratioP1;P2;durP2;ratioP2
8419;SDS011;4247;48.550;8.822;2022-10-31T00:00:03;7.30;;;1.10;;
8419;SDS011;4247;48.550;8.822;2022-10-31T00:02:32;4.07;;;1.20;;
8419;SDS011;4247;48.550;8.822;2022-10-31T00:04:59;1.83;;;1.63;;
8419;SDS011;4247;48.550;8.822;2022-10-31T00:07:26;2.93;;;1.10;;
8419;SDS011;4247;48.550;8.822;2022-10-31T00:09:54;3.17;;;1.33;;
8419;SDS011;4247;48.550;8.822;2022-10-31T00:12:21;1.60;;;1.27;;
8419;SDS011;4247;48.550;8.822;2022-10-31T00:14:48;2.03;;;1.30;;
8419;SDS011;4247;48.550;8.822;2022-10-31T00:17:15;2.37;;;1.40;;
8419;SDS011;4247;48.550;8.822;2022-10-31T00:19:41;3.80;;;1.50;;
8419;SDS011;4247;48.550;8.822;2022-10-31T00:22:08;6.60;;;1.70;;
8419;SDS011;4247;48.550;8.822;2022-10-31T00:24:35;2.33;;;1.17;;
8419;SDS011;4247;48.550;8.822;2022-10-31T00:27:04;5.47;;;2.27;;
8419;SDS011;4247;48.550;8.822;2022-10-31T00:29:31;4.87;;;1.43;;
8419;SDS011;4247;48.550;8.822;2022-10-31T00:31:57;3.60;;;1.60;;
8419;SDS011;4247;48.550;8.822;2022-10-31T00:34:24;2.60;;;1.03;;
8419;SDS011;4247;48.550;8.822;2022-10-31T00:36:55;5.63;;;3.43;;
8419;SDS011;4247;48.550;8.822;2022-10-31T00:39:22;5.83;;;1.97;;
8419;SDS011;4247;48.550;8.822;2022-10-31T00:41:48;3.60;;;1.37;;
8419;SDS011;4247;48.550;8.822;2022-10-31T00:44:17;2.77;;;0.83;;
8419;SDS011;4247;48.550;8.822;2022-10-31T00:46:44;3.87;;;2.07;;
8419;SDS011;4247;48.550;8.822;2022-10-31T00:49:12;5.10;;;1.33;;
8419;SDS011;4247;48.550;8.822;2022-10-31T00:51:39;4.80;;;1.33;;
8419;SDS011;4247;48.550;8.822;2022-10-31T00:54:06;1.47;;;1.20;;
8419;SDS011;4247;48.550;8.822;2022-10-31T00:56:33;2.93;;;1.63;;
8419;SDS011;4247;48.550;8.822;2022-10-31T00:59:00;9.20;;;1.60;;
8419;SDS011;4247;48.550;8.822;2022-10-31T01:01:28;2.57;;;1.30;;
8419;SDS011;4247;48.550;8.822;2022-10-31T01:03:55;6.13;;;1.67;;
8419;SDS011;4247;48.550;8.822;2022-10-31T01:06:22;2.33;;;1.73;;
8419;SDS011;4247;48.550;8.822;2022-10-31T01:08:48;6.40;;;1.00;;
8419;SDS011;4247;48.550;8.822;2022-10-31T01:11:16;3.73;;;1.57;;
8419;SDS011;4247;48.550;8.822;2022-10-31T01:13:45;3.10;;;1.10;;
8419;SDS011;4247;48.550;8.822;2022-10-31T01:16:14;2.47;;;1.20;;
8419;SDS011;4247;48.550;8.822;2022-10-31T01:18:43;5.93;;;1.50;;
8419;SDS011;4247;48.550;8.822;2022-10-31T01:21:11;3.00;;;1.27;;
8419;SDS011;4247;48.550;8.822;2022-10-31T01:23:40;6.77;;;1.47;;
8419;SDS011;4247;48.550;8.822;2022-10-31T01:26:08;4.00;;;1.77;;
8419;SDS011;4247;48.550;8.822;2022-10-31T01:28:37;7.03;;;4.50;;
8419;SDS011;4247;48.550;8.822;2022-10-31T01:31:06;11.13;;;1.63;;
8419;SDS011;4247;48.550;8.822;2022-10-31T01:33:36;4.63;;;1.50;;
8419;SDS011;4247;48.550;8.822;2022-10-31T01:36:12;2.37;;;1.30;;
8419;SDS011;4247;48.550;8.822;2022-10-31T01:38:41;1.30;;;1.03;;
8419;SDS011;4247;48.550;8.822;2022-10-31T01:41:08;4.20;;;1.20;;
8419;SDS011;4247;48.550;8.822;2022-10-31T01:43:47;1.50;;;1.10;;
8419;SDS011;4247;48.550;8.822;2022-10-31T01:46:15;5.40;;;2.03;;
8419;SDS011;4247;48.550;8.822;2022-10-31T01:48:46;1.70;;;1.27;;
8419;SDS011;4247;48.550;8.822;2022-10-31T01:51:15;2.80;;;1.17;;
8419;SDS011;4247;48.550;8.822;2022-10-31T01:53:50;2.03;;;1.53;;
8419;SDS011;4247;48.550;8.822;2022-10-31T01:56:21;3.10;;;1.47;;
8419;SDS011;4247;48.550;8.822;2022-10-31T01:58:49;4.83;;;1.83;;
8419;SDS011;4247;48.550;8.822;2022-10-31T02:01:16;3.20;;;1.33;;
8419;SDS011;4247;48.550;8.822;2022-10-31T02:03:43;3.87;;;1.70;;
8419;SDS011;4247;48.550;8.822;2022-10-31T02:06:13;8.33;;;1.57;;
8419;SDS011;4247;48.550;8.822;2022-10-31T02:08:52;5.20;;;1.57;;
8419;SDS011;4247;48.550;8.822;2022-10-31T02:11:20;6.87;;;1.63;;
8419;SDS011;4247;48.550;8.822;2022-10-31T02:13:48;4.43;;;1.93;;
8419;SDS011;4247;48.550;8.822;2022-10-31T02:16:14;2.03;;;1.40;;
8419;SDS011;4247;48.550;8.822;2022-10-31T02:18:41;3.80;;;2.23;;
8419;SDS011;4247;48.550;8.822;2022-10-31T02:21:11;2.17;;;1.20;;
8419;SDS011;4247;48.550;8.822;2022-10-31T02:23:59;3.33;;;1.80;;
8419;SDS011;4247;48.550;8.822;2022-10-31T02:26:43;3.47;;;1.57;;
8419;SDS011;4247;48.550;8.822;2022-10-31T02:29:26;2.07;;;1.87;;
8419;SDS011;4247;48.550;8.822;2022-10-31T02:32:08;3.13;;;1.20;;
8419;SDS011;4247;48.550;8.822;2022-10-31T02:34:42;2.40;;;1.47;;
8419;SDS011;4247;48.550;8.822;2022-10-31T02:37:16;1.97;;;1.17;;
8419;SDS011;4247;48.550;8.822;2022-10-31T02:39:51;2.47;;;1.63;;
8419;SDS011;4247;48.550;8.822;2022-10-31T02:42:24;1.47;;;1.10;;
8419;SDS011;4247;48.550;8.822;2022-10-31T02:44:59;4.90;;;1.27;;
8419;SDS011;4247;48.550;8.822;2022-10-31T02:47:33;2.10;;;1.40;;
8419;SDS011;4247;48.550;8.822;2022-10-31T02:50:04;9.13;;;3.23;;
8419;SDS011;4247;48.550;8.822;2022-10-31T02:52:35;3.83;;;1.50;;
8419;SDS011;4247;48.550;8.822;2022-10-31T02:55:12;2.20;;;1.57;;
8419;SDS011;4247;48.550;8.822;2022-10-31T02:58:01;7.20;;;1.93;;
8419;SDS011;4247;48.550;8.822;2022-10-31T03:00:32;3.07;;;1.80;;
8419;SDS011;4247;48.550;8.822;2022-10-31T03:03:05;4.40;;;2.27;;
8419;SDS011;4247;48.550;8.822;2022-10-31T03:05:41;10.67;;;2.40;;
8419;SDS011;4247;48.550;8.822;2022-10-31T03:08:19;3.77;;;1.70;;
8419;SDS011;4247;48.550;8.822;2022-10-31T03:10:52;7.13;;;1.67;;
8419;SDS011;4247;48.550;8.822;2022-10-31T03:13:26;2.13;;;1.20;;
8419;SDS011;4247;48.550;8.822;2022-10-31T03:16:01;2.17;;;1.10;;
8419;SDS011;4247;48.550;8.822;2022-10-31T03:18:33;2.20;;;1.47;;
8419;SDS011;4247;48.550;8.822;2022-10-31T03:21:04;2.77;;;1.40;;
8419;SDS011;4247;48.550;8.822;2022-10-31T03:23:36;3.77;;;1.50;;
8419;SDS011;4247;48.550;8.822;2022-10-31T03:26:06;2.27;;;1.53;;
8419;SDS011;4247;48.550;8.822;2022-10-31T03:28:37;2.33;;;1.30;;
8419;SDS011;4247;48.550;8.822;2022-10-31T03:31:09;3.90;;;1.53;;
8419;SDS011;4247;48.550;8.822;2022-10-31T03:33:43;3.67;;;1.20;;
8419;SDS011;4247;48.550;8.822;2022-10-31T03:36:12;5.03;;;1.60;;
8419;SDS011;4247;48.550;8.822;2022-10-31T03:38:41;5.23;;;1.20;;
8419;SDS011;4247;48.550;8.822;2022-10-31T03:41:15;1.30;;;1.20;;
8419;SDS011;4247;48.550;8.822;2022-10-31T03:43:55;4.27;;;1.47;;
8419;SDS011;4247;48.550;8.822;2022-10-31T03:46:26;1.50;;;1.10;;
8419;SDS011;4247;48.550;8.822;2022-10-31T03:48:53;5.30;;;1.30;;
8419;SDS011;4247;48.550;8.822;2022-10-31T03:51:22;3.47;;;1.57;;
8419;SDS011;4247;48.550;8.822;2022-10-31T03:53:56;8.77;;;1.23;;
8419;SDS011;4247;48.550;8.822;2022-10-31T03:56:29;3.47;;;1.30;;
8419;SDS011;4247;48.550;8.822;2022-10-31T03:59:04;3.50;;;1.67;;
8419;SDS011;4247;48.550;8.822;2022-10-31T04:01:39;3.33;;;0.87;;
8419;SDS011;4247;48.550;8.822;2022-10-31T04:04:17;1.87;;;1.10;;
8419;SDS011;4247;48.550;8.822;2022-10-31T04:06:45;4.57;;;1.83;;
8419;SDS011;4247;48.550;8.822;2022-10-31T04:09:13;4.33;;;1.40;;
8419;SDS011;4247;48.550;8.822;2022-10-31T04:11:42;5.90;;;1.40;;
8419;SDS011;4247;48.550;8.822;2022-10-31T04:14:18;9.17;;;1.40;;
8419;SDS011;4247;48.550;8.822;2022-10-31T04:16:45;4.70;;;1.13;;
8419;SDS011;4247;48.550;8.822;2022-10-31T04:19:12;5.60;;;1.13;;
8419;SDS011;4247;48.550;8.822;2022-10-31T04:21:40;2.60;;;1.00;;
8419;SDS011;4247;48.550;8.822;2022-10-31T04:24:08;1.00;;;0.90;;
8419;SDS011;4247;48.550;8.822;2022-10-31T04:26:37;3.63;;;1.30;;
8419;SDS011;4247;48.550;8.822;2022-10-31T04:29:04;1.80;;;0.83;;
8419;SDS011;4247;48.550;8.822;2022-10-31T04:31:32;2.57;;;1.40;;
8419;SDS011;4247;48.550;8.822;2022-10-31T04:33:59;2.40;;;0.90;;
8419;SDS011;4247;48.550;8.822;2022-10-31T04:36:25;19.47;;;2.83;;
8419;SDS011;4247;48.550;8.822;2022-10-31T04:38:52;5.03;;;2.13;;
8419;SDS011;4247;48.550;8.822;2022-10-31T04:41:19;2.17;;;1.30;;
8419;SDS011;4247;48.550;8.822;2022-10-31T04:43:46;4.47;;;1.10;;
8419;SDS011;4247;48.550;8.822;2022-10-31T04:46:13;4.87;;;1.20;;
8419;SDS011;4247;48.550;8.822;2022-10-31T04:48:42;5.30;;;1.10;;
8419;SDS011;4247;48.550;8.822;2022-10-31T04:51:09;2.77;;;0.90;;
8419;SDS011;4247;48.550;8.822;2022-10-31T04:53:36;2.17;;;1.43;;
8419;SDS011;4247;48.550;8.822;2022-10-31T04:56:03;1.30;;;0.93;;
8419;SDS011;4247;48.550;8.822;2022-10-31T04:58:30;1.73;;;1.30;;
8419;SDS011;4247;48.550;8.822;2022-10-31T05:00:57;3.20;;;1.10;;
8419;SDS011;4247;48.550;8.822;2022-10-31T05:03:23;2.03;;;1.00;;
8419;SDS011;4247;48.550;8.822;2022-10-31T05:05:52;6.30;;;1.30;;
8419;SDS011;4247;48.550;8.822;2022-10-31T05:08:18;2.93;;;1.30;;
8419;SDS011;4247;48.550;8.822;2022-10-31T05:10:45;4.10;;;1.30;;
8419;SDS011;4247;48.550;8.822;2022-10-31T05:13:12;2.20;;;1.13;;
8419;SDS011;4247;48.550;8.822;2022-10-31T05:15:40;3.23;;;1.30;;
8419;SDS011;4247;48.550;8.822;2022-10-31T05:18:08;2.30;;;1.13;;
8419;SDS011;4247;48.550;8.822;2022-10-31T05:20:35;4.13;;;1.63;;
8419;SDS011;4247;48.550;8.822;2022-10-31T05:23:03;3.63;;;1.50;;
8419;SDS011;4247;48.550;8.822;2022-10-31T05:25:30;5.83;;;1.77;;
8419;SDS011;4247;48.550;8.822;2022-10-31T05:27:57;3.17;;;1.50;;
8419;SDS011;4247;48.550;8.822;2022-10-31T05:30:25;5.17;;;1.80;;
8419;SDS011;4247;48.550;8.822;2022-10-31T05:32:54;6.63;;;1.87;;
8419;SDS011;4247;48.550;8.822;2022-10-31T05:35:22;11.83;;;1.97;;
8419;SDS011;4247;48.550;8.822;2022-10-31T05:37:50;1.40;;;1.03;;
8419;SDS011;4247;48.550;8.822;2022-10-31T05:40:20;6.80;;;1.70;;
8419;SDS011;4247;48.550;8.822;2022-10-31T05:42:50;4.17;;;2.20;;
8419;SDS011;4247;48.550;8.822;2022-10-31T05:45:18;2.97;;;1.77;;
8419;SDS011;4247;48.550;8.822;2022-10-31T05:47:49;7.80;;;1.83;;
8419;SDS011;4247;48.550;8.822;2022-10-31T05:50:17;2.37;;;1.50;;
8419;SDS011;4247;48.550;8.822;2022-10-31T05:52:54;3.27;;;1.80;;
8419;SDS011;4247;48.550;8.822;2022-10-31T05:55:23;5.53;;;1.90;;
8419;SDS011;4247;48.550;8.822;2022-10-31T05:57:50;3.13;;;1.10;;
8419;SDS011;4247;48.550;8.822;2022-10-31T06:00:17;5.37;;;1.53;;
8419;SDS011;4247;48.550;8.822;2022-10-31T06:02:46;4.67;;;1.97;;
8419;SDS011;4247;48.550;8.822;2022-10-31T06:05:13;4.63;;;1.43;;
8419;SDS011;4247;48.550;8.822;2022-10-31T06:07:41;3.80;;;1.43;;
8419;SDS011;4247;48.550;8.822;2022-10-31T06:10:08;5.20;;;2.30;;
8419;SDS011;4247;48.550;8.822;2022-10-31T06:12:37;5.47;;;1.73;;
8419;SDS011;4247;48.550;8.822;2022-10-31T06:15:06;8.37;;;1.73;;
8419;SDS011;4247;48.550;8.822;2022-10-31T06:17:33;3.77;;;1.70;;
8419;SDS011;4247;48.550;8.822;2022-10-31T06:20:00;7.10;;;1.63;;
8419;SDS011;4247;48.550;8.822;2022-10-31T06:22:27;5.87;;;1.40;;
8419;SDS011;4247;48.550;8.822;2022-10-31T06:25:10;9.90;;;2.17;;
8419;SDS011;4247;48.550;8.822;2022-10-31T06:27:38;5.83;;;1.47;;
8419;SDS011;4247;48.550;8.822;2022-10-31T06:30:05;7.03;;;2.17;;
8419;SDS011;4247;48.550;8.822;2022-10-31T06:32:33;22.43;;;2.63;;
8419;SDS011;4247;48.550;8.822;2022-10-31T06:35:00;3.07;;;1.10;;
8419;SDS011;4247;48.550;8.822;2022-10-31T06:37:27;4.00;;;1.30;;
8419;SDS011;4247;48.550;8.822;2022-10-31T06:39:53;1.60;;;1.50;;
8419;SDS011;4247;48.550;8.822;2022-10-31T06:42:20;5.73;;;1.40;;
8419;SDS011;4247;48.550;8.822;2022-10-31T06:44:48;4.57;;;1.00;;
8419;SDS011;4247;48.550;8.822;2022-10-31T06:47:18;4.67;;;1.03;;
8419;SDS011;4247;48.550;8.822;2022-10-31T06:49:45;3.33;;;1.63;;
8419;SDS011;4247;48.550;8.822;2022-10-31T06:52:12;4.63;;;1.23;;
8419;SDS011;4247;48.550;8.822;2022-10-31T06:54:39;4.07;;;1.40;;
8419;SDS011;4247;48.550;8.822;2022-10-31T06:57:05;3.03;;;1.30;;
8419;SDS011;4247;48.550;8.822;2022-10-31T06:59:38;2.87;;;1.50;;
8419;SDS011;4247;48.550;8.822;2022-10-31T07:02:07;2.67;;;1.23;;
8419;SDS011;4247;48.550;8.822;2022-10-31T07:04:34;2.67;;;1.20;;
8419;SDS011;4247;48.550;8.822;2022-10-31T07:07:01;5.50;;;1.20;;
8419;SDS011;4247;48.550;8.822;2022-10-31T07:09:28;4.63;;;1.40;;
8419;SDS011;4247;48.550;8.822;2022-10-31T07:11:55;2.20;;;1.40;;
8419;SDS011;4247;48.550;8.822;2022-10-31T07:14:22;8.77;;;1.63;;
8419;SDS011;4247;48.550;8.822;2022-10-31T07:16:49;5.47;;;2.07;;
8419;SDS011;4247;48.550;8.822;2022-10-31T07:19:18;6.43;;;1.57;;
8419;SDS011;4247;48.550;8.822;2022-10-31T07:21:45;3.60;;;1.40;;
8419;SDS011;4247;48.550;8.822;2022-10-31T07:24:11;4.40;;;1.20;;
8419;SDS011;4247;48.550;8.822;2022-10-31T07:26:38;2.50;;;1.50;;
8419;SDS011;4247;48.550;8.822;2022-10-31T07:29:07;5.53;;;2.77;;
8419;SDS011;4247;48.550;8.822;2022-10-31T07:31:34;3.77;;;1.60;;
8419;SDS011;4247;48.550;8.822;2022-10-31T07:34:00;2.43;;;2.20;;
8419;SDS011;4247;48.550;8.822;2022-10-31T07:36:29;6.63;;;2.23;;
8419;SDS011;4247;48.550;8.822;2022-10-31T07:38:56;4.27;;;1.97;;
8419;SDS011;4247;48.550;8.822;2022-10-31T07:41:29;9.33;;;2.13;;
8419;SDS011;4247;48.550;8.822;2022-10-31T07:43:56;7.50;;;2.03;;
8419;SDS011;4247;48.550;8.822;2022-10-31T07:46:22;4.77;;;2.00;;
8419;SDS011;4247;48.550;8.822;2022-10-31T07:48:49;4.50;;;1.80;;
8419;SDS011;4247;48.550;8.822;2022-10-31T07:51:16;10.73;;;2.60;;
8419;SDS011;4247;48.550;8.822;2022-10-31T07:53:45;2.43;;;2.23;;
8419;SDS011;4247;48.550;8.822;2022-10-31T07:56:12;3.57;;;2.17;;
8419;SDS011;4247;48.550;8.822;2022-10-31T07:58:39;6.30;;;1.33;;
8419;SDS011;4247;48.550;8.822;2022-10-31T08:01:05;4.30;;;1.80;;
8419;SDS011;4247;48.550;8.822;2022-10-31T08:03:38;5.43;;;1.87;;
8419;SDS011;4247;48.550;8.822;2022-10-31T08:06:05;3.07;;;2.07;;
8419;SDS011;4247;48.550;8.822;2022-10-31T08:08:32;5.87;;;1.70;;
8419;SDS011;4247;48.550;8.822;2022-10-31T08:11:00;4.27;;;1.80;;
8419;SDS011;4247;48.550;8.822;2022-10-31T08:13:27;6.10;;;1.50;;
8419;SDS011;4247;48.550;8.822;2022-10-31T08:15:54;4.33;;;1.97;;
8419;SDS011;4247;48.550;8.822;2022-10-31T08:18:21;3.13;;;1.60;;
8419;SDS011;4247;48.550;8.822;2022-10-31T08:20:48;2.33;;;1.60;;
8419;SDS011;4247;48.550;8.822;2022-10-31T08:23:15;5.40;;;1.50;;
8419;SDS011;4247;48.550;8.822;2022-10-31T08:25:42;5.87;;;1.43;;
8419;SDS011;4247;48.550;8.822;2022-10-31T08:28:13;6.13;;;1.50;;
8419;SDS011;4247;48.550;8.822;2022-10-31T08:30:41;8.23;;;2.13;;
8419;SDS011;4247;48.550;8.822;2022-10-31T08:33:09;2.00;;;1.77;;
8419;SDS011;4247;48.550;8.822;2022-10-31T08:35:38;4.37;;;1.47;;
8419;SDS011;4247;48.550;8.822;2022-10-31T08:38:07;5.17;;;2.57;;
8419;SDS011;4247;48.550;8.822;2022-10-31T08:40:36;4.40;;;1.50;;
8419;SDS011;4247;48.550;8.822;2022-10-31T08:43:04;7.27;;;1.90;;
8419;SDS011;4247;48.550;8.822;2022-10-31T08:45:38;2.20;;;1.50;;
8419;SDS011;4247;48.550;8.822;2022-10-31T08:48:06;4.83;;;2.10;;
8419;SDS011;4247;48.550;8.822;2022-10-31T08:50:36;5.27;;;1.97;;
8419;SDS011;4247;48.550;8.822;2022-10-31T08:53:05;5.80;;;2.03;;
8419;SDS011;4247;48.550;8.822;2022-10-31T08:55:33;6.17;;;2.10;;
8419;SDS011;4247;48.550;8.822;2022-10-31T08:58:01;4.23;;;2.10;;
8419;SDS011;4247;48.550;8.822;2022-10-31T09:00:29;3.57;;;1.57;;
8419;SDS011;4247;48.550;8.822;2022-10-31T09:02:58;2.90;;;1.87;;
8419;SDS011;4247;48.550;8.822;2022-10-31T09:05:26;7.03;;;2.30;;
8419;SDS011;4247;48.550;8.822;2022-10-31T09:10:35;2.50;;;1.67;;
8419;SDS011;4247;48.550;8.822;2022-10-31T09:13:04;6.77;;;2.53;;
8419;SDS011;4247;48.550;8.822;2022-10-31T09:15:33;12.17;;;1.93;;
8419;SDS011;4247;48.550;8.822;2022-10-31T09:18:03;8.03;;;2.30;;
8419;SDS011;4247;48.550;8.822;2022-10-31T09:20:30;7.30;;;1.93;;
8419;SDS011;4247;48.550;8.822;2022-10-31T09:22:59;1.60;;;1.50;;
8419;SDS011;4247;48.550;8.822;2022-10-31T09:25:29;4.97;;;1.80;;
8419;SDS011;4247;48.550;8.822;2022-10-31T09:27:57;4.53;;;2.23;;
8419;SDS011;4247;48.550;8.822;2022-10-31T09:30:24;6.57;;;2.70;;
8419;SDS011;4247;48.550;8.822;2022-10-31T09:32:54;4.57;;;1.30;;
8419;SDS011;4247;48.550;8.822;2022-10-31T09:35:23;4.23;;;1.80;;
8419;SDS011;4247;48.550;8.822;2022-10-31T09:37:54;4.93;;;1.60;;
8419;SDS011;4247;48.550;8.822;2022-10-31T09:40:23;5.07;;;2.20;;
8419;SDS011;4247;48.550;8.822;2022-10-31T09:42:56;3.70;;;2.07;;
8419;SDS011;4247;48.550;8.822;2022-10-31T09:45:31;2.50;;;1.47;;
8419;SDS011;4247;48.550;8.822;2022-10-31T09:48:09;2.93;;;1.63;;
8419;SDS011;4247;48.550;8.822;2022-10-31T09:50:52;5.63;;;1.93;;
8419;SDS011;4247;48.550;8.822;2022-10-31T09:53:23;2.77;;;2.00;;
8419;SDS011;4247;48.550;8.822;2022-10-31T09:55:53;7.03;;;1.97;;
8419;SDS011;4247;48.550;8.822;2022-10-31T09:58:23;8.50;;;2.73;;
8419;SDS011;4247;48.550;8.822;2022-10-31T10:00:52;4.57;;;2.50;;
8419;SDS011;4247;48.550;8.822;2022-10-31T10:03:26;5.13;;;2.00;;
8419;SDS011;4247;48.550;8.822;2022-10-31T10:06:01;5.90;;;1.97;;
8419;SDS011;4247;48.550;8.822;2022-10-31T10:08:35;5.37;;;1.87;;
8419;SDS011;4247;48.550;8.822;2022-10-31T10:11:12;4.27;;;2.53;;
8419;SDS011;4247;48.550;8.822;2022-10-31T10:16:52;5.03;;;1.87;;
8419;SDS011;4247;48.550;8.822;2022-10-31T10:19:35;5.60;;;2.40;;
8419;SDS011;4247;48.550;8.822;2022-10-31T10:22:22;4.23;;;1.90;;
8419;SDS011;4247;48.550;8.822;2022-10-31T10:24:59;6.40;;;2.37;;
8419;SDS011;4247;48.550;8.822;2022-10-31T10:27:50;9.13;;;2.77;;
8419;SDS011;4247;48.550;8.822;2022-10-31T10:30:26;4.43;;;2.40;;
8419;SDS011;4247;48.550;8.822;2022-10-31T10:33:00;4.53;;;1.93;;
8419;SDS011;4247;48.550;8.822;2022-10-31T10:35:49;3.83;;;2.20;;
8419;SDS011;4247;48.550;8.822;2022-10-31T10:38:22;3.10;;;2.10;;
8419;SDS011;4247;48.550;8.822;2022-10-31T10:40:54;5.83;;;2.57;;
8419;SDS011;4247;48.550;8.822;2022-10-31T10:43:23;9.67;;;2.17;;
8419;SDS011;4247;48.550;8.822;2022-10-31T10:46:06;5.47;;;2.63;;
8419;SDS011;4247;48.550;8.822;2022-10-31T10:49:11;14.00;;;3.00;;
8419;SDS011;4247;48.550;8.822;2022-10-31T10:51:43;2.00;;;1.80;;
8419;SDS011;4247;48.550;8.822;2022-10-31T10:57:22;7.03;;;2.60;;
8419;SDS011;4247;48.550;8.822;2022-10-31T10:59:59;6.77;;;2.63;;
8419;SDS011;4247;48.550;8.822;2022-10-31T11:02:31;2.57;;;1.90;;
8419;SDS011;4247;48.550;8.822;2022-10-31T11:05:08;3.53;;;2.70;;
8419;SDS011;4247;48.550;8.822;2022-10-31T11:07:43;5.90;;;2.50;;
8419;SDS011;4247;48.550;8.822;2022-10-31T11:10:13;5.60;;;2.70;;
8419;SDS011;4247;48.550;8.822;2022-10-31T11:12:42;2.60;;;2.40;;
8419;SDS011;4247;48.550;8.822;2022-10-31T11:15:17;8.77;;;2.77;;
8419;SDS011;4247;48.550;8.822;2022-10-31T11:17:47;3.93;;;2.30;;
8419;SDS011;4247;48.550;8.822;2022-10-31T11:23:05;5.30;;;2.50;;
8419;SDS011;4247;48.550;8.822;2022-10-31T11:25:52;5.83;;;2.03;;
8419;SDS011;4247;48.550;8.822;2022-10-31T11:28:21;5.20;;;2.27;;
8419;SDS011;4247;48.550;8.822;2022-10-31T11:30:49;4.50;;;2.67;;
8419;SDS011;4247;48.550;8.822;2022-10-31T11:33:18;5.23;;;2.20;;
8419;SDS011;4247;48.550;8.822;2022-10-31T11:35:48;6.80;;;2.37;;
8419;SDS011;4247;48.550;8.822;2022-10-31T11:38:17;3.57;;;2.07;;
8419;SDS011;4247;48.550;8.822;2022-10-31T11:41:08;9.83;;;2.23;;
8419;SDS011;4247;48.550;8.822;2022-10-31T11:43:38;6.30;;;3.17;;
8419;SDS011;4247;48.550;8.822;2022-10-31T11:46:11;9.60;;;2.50;;
8419;SDS011;4247;48.550;8.822;2022-10-31T11:48:46;7.47;;;2.07;;
8419;SDS011;4247;48.550;8.822;2022-10-31T11:51:19;5.60;;;2.73;;
8419;SDS011;4247;48.550;8.822;2022-10-31T11:53:50;6.27;;;2.90;;
8419;SDS011;4247;48.550;8.822;2022-10-31T11:56:20;4.47;;;2.10;;
8419;SDS011;4247;48.550;8.822;2022-10-31T11:58:54;7.90;;;2.47;;
8419;SDS011;4247;48.550;8.822;2022-10-31T12:01:24;5.10;;;2.67;;
8419;SDS011;4247;48.550;8.822;2022-10-31T12:03:54;6.30;;;2.63;;
8419;SDS011;4247;48.550;8.822;2022-10-31T12:06:28;4.07;;;2.40;;
8419;SDS011;4247;48.550;8.822;2022-10-31T12:08:59;5.83;;;1.73;;
8419;SDS011;4247;48.550;8.822;2022-10-31T12:11:32;4.00;;;2.33;;
8419;SDS011;4247;48.550;8.822;2022-10-31T12:14:13;7.97;;;2.43;;
8419;SDS011;4247;48.550;8.822;2022-10-31T12:16:48;6.13;;;2.57;;
8419;SDS011;4247;48.550;8.822;2022-10-31T12:19:23;8.33;;;2.57;;
8419;SDS011;4247;48.550;8.822;2022-10-31T12:22:04;3.00;;;2.07;;
8419;SDS011;4247;48.550;8.822;2022-10-31T12:24:43;3.97;;;2.50;;
8419;SDS011;4247;48.550;8.822;2022-10-31T12:27:23;6.93;;;2.40;;
8419;SDS011;4247;48.550;8.822;2022-10-31T12:30:11;5.57;;;2.30;;
8419;SDS011;4247;48.550;8.822;2022-10-31T12:35:42;3.27;;;2.27;;
8419;SDS011;4247;48.550;8.822;2022-10-31T12:41:17;5.87;;;2.43;;
8419;SDS011;4247;48.550;8.822;2022-10-31T12:44:00;3.90;;;2.80;;
8419;SDS011;4247;48.550;8.822;2022-10-31T12:46:37;6.17;;;2.00;;
8419;SDS011;4247;48.550;8.822;2022-10-31T12:52:15;6.17;;;2.40;;
8419;SDS011;4247;48.550;8.822;2022-10-31T12:54:58;7.27;;;2.60;;
8419;SDS011;4247;48.550;8.822;2022-10-31T12:57:33;10.73;;;3.27;;
8419;SDS011;4247;48.550;8.822;2022-10-31T13:00:09;8.60;;;2.33;;
8419;SDS011;4247;48.550;8.822;2022-10-31T13:02:41;5.43;;;2.90;;
8419;SDS011;4247;48.550;8.822;2022-10-31T13:05:16;4.83;;;2.30;;
8419;SDS011;4247;48.550;8.822;2022-10-31T13:07:52;5.50;;;2.50;;
8419;SDS011;4247;48.550;8.822;2022-10-31T13:10:24;7.43;;;2.73;;
8419;SDS011;4247;48.550;8.822;2022-10-31T13:12:58;6.37;;;2.63;;
8419;SDS011;4247;48.550;8.822;2022-10-31T13:15:34;5.13;;;2.50;;
8419;SDS011;4247;48.550;8.822;2022-10-31T13:18:12;3.97;;;2.63;;
8419;SDS011;4247;48.550;8.822;2022-10-31T13:20:47;4.80;;;2.33;;
8419;SDS011;4247;48.550;8.822;2022-10-31T13:23:16;11.43;;;2.60;;
8419;SDS011;4247;48.550;8.822;2022-10-31T13:25:49;3.10;;;2.10;;
8419;SDS011;4247;48.550;8.822;2022-10-31T13:28:23;4.20;;;2.03;;
8419;SDS011;4247;48.550;8.822;2022-10-31T13:30:56;7.40;;;2.20;;
8419;SDS011;4247;48.550;8.822;2022-10-31T13:33:24;5.60;;;2.70;;
8419;SDS011;4247;48.550;8.822;2022-10-31T13:35:55;8.50;;;2.70;;
8419;SDS011;4247;48.550;8.822;2022-10-31T13:38:32;5.93;;;2.37;;
8419;SDS011;4247;48.550;8.822;2022-10-31T13:41:04;7.37;;;2.40;;
8419;SDS011;4247;48.550;8.822;2022-10-31T13:43:38;12.80;;;3.00;;
8419;SDS011;4247;48.550;8.822;2022-10-31T13:46:24;5.40;;;2.13;;
8419;SDS011;4247;48.550;8.822;2022-10-31T13:48:54;5.77;;;3.23;;
8419;SDS011;4247;48.550;8.822;2022-10-31T13:51:26;5.73;;;2.83;;
8419;SDS011;4247;48.550;8.822;2022-10-31T13:53:58;4.63;;;2.70;;
8419;SDS011;4247;48.550;8.822;2022-10-31T13:56:26;7.40;;;2.63;;
8419;SDS011;4247;48.550;8.822;2022-10-31T14:01:53;9.90;;;3.17;;
8419;SDS011;4247;48.550;8.822;2022-10-31T14:04:22;8.43;;;2.67;;
8419;SDS011;4247;48.550;8.822;2022-10-31T14:06:56;8.30;;;2.73;;
8419;SDS011;4247;48.550;8.822;2022-10-31T14:09:28;4.93;;;2.13;;
8419;SDS011;4247;48.550;8.822;2022-10-31T14:11:59;7.07;;;2.87;;
8419;SDS011;4247;48.550;8.822;2022-10-31T14:14:30;8.63;;;2.93;;
8419;SDS011;4247;48.550;8.822;2022-10-31T14:17:03;6.97;;;2.87;;
8419;SDS011;4247;48.550;8.822;2022-10-31T14:19:34;7.23;;;3.27;;
8419;SDS011;4247;48.550;8.822;2022-10-31T14:22:01;6.10;;;2.77;;
8419;SDS011;4247;48.550;8.822;2022-10-31T14:24:32;4.97;;;3.00;;
8419;SDS011;4247;48.550;8.822;2022-10-31T14:27:02;5.70;;;2.60;;
8419;SDS011;4247;48.550;8.822;2022-10-31T14:29:31;8.90;;;3.67;;
8419;SDS011;4247;48.550;8.822;2022-10-31T14:32:01;6.17;;;2.53;;
8419;SDS011;4247;48.550;8.822;2022-10-31T14:34:51;6.57;;;3.10;;
8419;SDS011;4247;48.550;8.822;2022-10-31T14:37:23;3.97;;;2.77;;
8419;SDS011;4247;48.550;8.822;2022-10-31T14:40:22;5.73;;;2.70;;
8419;SDS011;4247;48.550;8.822;2022-10-31T14:43:30;7.03;;;4.33;;
8419;SDS011;4247;48.550;8.822;2022-10-31T14:46:17;7.67;;;3.30;;
8419;SDS011;4247;48.550;8.822;2022-10-31T14:48:57;7.83;;;3.43;;
8419;SDS011;4247;48.550;8.822;2022-10-31T14:51:40;7.10;;;2.53;;
8419;SDS011;4247;48.550;8.822;2022-10-31T14:54:11;12.93;;;2.73;;
8419;SDS011;4247;48.550;8.822;2022-10-31T14:56:45;6.37;;;3.20;;
8419;SDS011;4247;48.550;8.822;2022-10-31T14:59:16;8.63;;;3.60;;
8419;SDS011;4247;48.550;8.822;2022-10-31T15:01:51;7.97;;;3.17;;
8419;SDS011;4247;48.550;8.822;2022-10-31T15:04:24;6.53;;;3.03;;
8419;SDS011;4247;48.550;8.822;2022-10-31T15:06:54;6.17;;;3.17;;
8419;SDS011;4247;48.550;8.822;2022-10-31T15:09:26;9.97;;;3.70;;
8419;SDS011;4247;48.550;8.822;2022-10-31T15:11:56;5.43;;;3.17;;
8419;SDS011;4247;48.550;8.822;2022-10-31T15:14:25;14.03;;;3.90;;
8419;SDS011;4247;48.550;8.822;2022-10-31T15:16:53;4.87;;;3.13;;
8419;SDS011;4247;48.550;8.822;2022-10-31T15:19:23;6.23;;;3.10;;
8419;SDS011;4247;48.550;8.822;2022-10-31T15:21:53;10.13;;;3.33;;
8419;SDS011;4247;48.550;8.822;2022-10-31T15:24:22;7.60;;;3.07;;
8419;SDS011;4247;48.550;8.822;2022-10-31T15:26:55;10.57;;;3.23;;
8419;SDS011;4247;48.550;8.822;2022-10-31T15:29:24;11.50;;;3.93;;
8419;SDS011;4247;48.550;8.822;2022-10-31T15:31:53;8.80;;;4.77;;
8419;SDS011;4247;48.550;8.822;2022-10-31T15:34:22;9.20;;;3.50;;
8419;SDS011;4247;48.550;8.822;2022-10-31T15:37:07;5.60;;;3.53;;
8419;SDS011;4247;48.550;8.822;2022-10-31T15:39:38;7.67;;;4.07;;
8419;SDS011;4247;48.550;8.822;2022-10-31T15:42:13;13.67;;;4.67;;
8419;SDS011;4247;48.550;8.822;2022-10-31T15:44:44;14.67;;;4.77;;
8419;SDS011;4247;48.550;8.822;2022-10-31T15:47:15;11.40;;;3.67;;
8419;SDS011;4247;48.550;8.822;2022-10-31T15:49:47;7.37;;;3.97;;
8419;SDS011;4247;48.550;8.822;2022-10-31T15:52:18;7.77;;;4.30;;
8419;SDS011;4247;48.550;8.822;2022-10-31T15:54:54;9.10;;;4.53;;
8419;SDS011;4247;48.550;8.822;2022-10-31T15:57:26;9.93;;;4.60;;
8419;SDS011;4247;48.550;8.822;2022-10-31T15:59:53;5.30;;;3.87;;
8419;SDS011;4247;48.550;8.822;2022-10-31T16:02:21;8.70;;;4.17;;